createdAt,value
2019-04-05T00:00:32.409Z,939.71
2019-04-05T00:01:32.397Z,939.69
2019-04-05T00:02:32.385Z,939.75
2019-04-05T00:03:32.372Z,939.72
2019-04-05T00:04:32.377Z,939.77
2019-04-05T00:05:32.349Z,939.8
2019-04-05T00:06:32.336Z,939.79
2019-04-05T00:07:32.325Z,939.79
2019-04-05T00:08:32.312Z,939.78
2019-04-05T00:09:32.300Z,939.81
2019-04-05T00:10:32.288Z,939.83
2019-04-05T00:11:32.276Z,939.83
2019-04-05T00:12:32.266Z,939.83
2019-04-05T00:13:32.252Z,939.86
2019-04-05T00:14:32.241Z,939.86
2019-04-05T00:15:32.230Z,939.85
2019-04-05T00:16:32.217Z,939.86
2019-04-05T00:17:32.205Z,939.86
2019-04-05T00:18:32.191Z,939.86
2019-04-05T00:19:32.179Z,939.86
2019-04-05T00:20:32.168Z,939.87
2019-04-05T00:21:32.157Z,939.84
2019-04-05T00:22:32.143Z,939.85
2019-04-05T00:23:32.131Z,939.8
2019-04-05T00:24:32.189Z,939.77
2019-04-05T00:25:32.107Z,939.78
2019-04-05T00:26:32.095Z,939.8
2019-04-05T00:27:32.084Z,939.83
2019-04-05T00:28:32.072Z,939.79
2019-04-05T00:29:32.058Z,939.77
2019-04-05T00:30:32.047Z,939.77
2019-04-05T00:31:32.036Z,939.77
2019-04-05T00:32:32.022Z,939.8
2019-04-05T00:33:32.016Z,939.8
2019-04-05T00:34:31.999Z,939.77
2019-04-05T00:35:31.990Z,939.79
2019-04-05T00:36:31.973Z,939.82
2019-04-05T00:37:31.962Z,939.82
2019-04-05T00:38:31.951Z,939.86
2019-04-05T00:39:31.940Z,939.88
2019-04-05T00:40:31.930Z,939.85
2019-04-05T00:41:33.093Z,939.91
2019-04-05T00:42:31.902Z,939.89
2019-04-05T00:43:31.890Z,939.94
2019-04-05T00:44:31.879Z,939.93
2019-04-05T00:45:31.866Z,939.95
2019-04-05T00:46:31.856Z,939.92
2019-04-05T00:47:31.842Z,939.93
2019-04-05T00:48:31.831Z,939.92
2019-04-05T00:49:31.818Z,939.94
2019-04-05T00:50:31.837Z,939.94
2019-04-05T00:51:31.794Z,939.97
2019-04-05T00:52:31.781Z,940.01
2019-04-05T00:53:31.769Z,940.05
2019-04-05T00:54:31.759Z,939.99
2019-04-05T00:55:31.745Z,940.02
2019-04-05T00:56:31.744Z,940.03
2019-04-05T00:57:31.721Z,940.02
2019-04-05T00:58:31.710Z,940.03
2019-04-05T00:59:31.697Z,940
2019-04-05T01:00:31.686Z,939.98
2019-04-05T01:01:31.673Z,940
2019-04-05T01:02:31.660Z,940.01
2019-04-05T01:03:31.649Z,940
2019-04-05T01:04:31.637Z,939.99
2019-04-05T01:05:31.624Z,940.01
2019-04-05T01:06:31.612Z,940.02
2019-04-05T01:07:31.600Z,940.01
2019-04-05T01:08:31.588Z,940.01
2019-04-05T01:09:31.575Z,939.98
2019-04-05T01:10:31.565Z,940.03
2019-04-05T01:11:31.557Z,940.02
2019-04-05T01:12:32.140Z,940.03
2019-04-05T01:13:31.529Z,940.02
2019-04-05T01:14:31.514Z,940.02
2019-04-05T01:15:40.532Z,940.01
2019-04-05T01:16:31.493Z,940.02
2019-04-05T01:17:31.479Z,940
2019-04-05T01:18:31.466Z,940.01
2019-04-05T01:19:31.454Z,940.02
2019-04-05T01:20:31.442Z,939.97
2019-04-05T01:21:31.429Z,939.97
2019-04-05T01:22:31.418Z,939.95
2019-04-05T01:23:31.405Z,940.01
2019-04-05T01:24:31.393Z,940.04
2019-04-05T01:25:31.382Z,940.02
2019-04-05T01:26:31.370Z,940.1
2019-04-05T01:27:31.356Z,940.1
2019-04-05T01:28:31.344Z,940.09
2019-04-05T01:29:31.332Z,940.12
2019-04-05T01:30:31.323Z,940.13
2019-04-05T01:31:31.334Z,940.08
2019-04-05T01:32:31.296Z,940.06
2019-04-05T01:33:31.283Z,940.06
2019-04-05T01:34:31.271Z,940.02
2019-04-05T01:35:31.258Z,940.03
2019-04-05T01:36:31.249Z,940.03
2019-04-05T01:37:31.235Z,940.03
2019-04-05T01:38:31.222Z,940.05
2019-04-05T01:39:31.210Z,940.03
2019-04-05T01:40:31.198Z,940.04
2019-04-05T01:41:31.186Z,940
2019-04-05T01:42:31.172Z,939.96
2019-04-05T01:43:31.160Z,939.9
2019-04-05T01:44:31.151Z,939.91
2019-04-05T01:45:31.137Z,939.88
2019-04-05T01:46:31.124Z,939.92
2019-04-05T01:47:31.113Z,939.92
2019-04-05T01:48:31.101Z,939.93
2019-04-05T01:49:31.087Z,939.9
2019-04-05T01:50:31.076Z,939.91
2019-04-05T01:51:31.064Z,939.99
2019-04-05T01:52:31.050Z,939.96
2019-04-05T01:53:31.037Z,939.96
2019-04-05T01:54:31.027Z,939.97
2019-04-05T01:55:31.013Z,939.92
2019-04-05T01:56:31.000Z,939.95
2019-04-05T01:57:30.988Z,939.99
2019-04-05T01:58:30.975Z,940
2019-04-05T01:59:30.962Z,940
2019-04-05T02:00:30.950Z,940
2019-04-05T02:01:30.937Z,940.02
2019-04-05T02:02:30.925Z,939.98
2019-04-05T02:03:30.912Z,939.97
2019-04-05T02:04:30.899Z,939.99
2019-04-05T02:05:30.887Z,939.95
2019-04-05T02:06:30.875Z,939.96
2019-04-05T02:07:30.860Z,940.02
2019-04-05T02:08:30.848Z,940.05
2019-04-05T02:09:30.834Z,940.13
2019-04-05T02:10:30.823Z,940.17
2019-04-05T02:11:30.811Z,940.15
2019-04-05T02:12:30.798Z,940.17
2019-04-05T02:13:30.784Z,940.11
2019-04-05T02:14:30.772Z,940.11
2019-04-05T02:15:30.908Z,940.08
2019-04-05T02:16:30.747Z,940.08
2019-04-05T02:17:30.733Z,940.08
2019-04-05T02:18:30.722Z,940.11
2019-04-05T02:19:30.707Z,940.11
2019-04-05T02:20:30.693Z,940.18
2019-04-05T02:21:30.681Z,940.2
2019-04-05T02:22:30.676Z,940.18
2019-04-05T02:23:30.658Z,940.26
2019-04-05T02:24:30.647Z,940.24
2019-04-05T02:25:30.630Z,940.24
2019-04-05T02:26:30.622Z,940.25
2019-04-05T02:27:30.604Z,940.23
2019-04-05T02:28:30.591Z,940.27
2019-04-05T02:29:30.579Z,940.29
2019-04-05T02:30:30.566Z,940.28
2019-04-05T02:31:30.553Z,940.31
2019-04-05T02:32:30.557Z,940.31
2019-04-05T02:33:30.542Z,940.31
2019-04-05T02:34:30.515Z,940.38
2019-04-05T02:35:30.543Z,940.36
2019-04-05T02:36:30.491Z,940.36
2019-04-05T02:37:30.479Z,940.35
2019-04-05T02:38:30.465Z,940.37
2019-04-05T02:39:30.454Z,940.33
2019-04-05T02:40:30.476Z,940.34
2019-04-05T02:41:30.427Z,940.39
2019-04-05T02:42:30.416Z,940.39
2019-04-05T02:43:30.450Z,940.42
2019-04-05T02:44:30.392Z,940.43
2019-04-05T02:45:30.397Z,940.41
2019-04-05T02:46:30.363Z,940.4
2019-04-05T02:47:30.357Z,940.41
2019-04-05T02:48:30.343Z,940.46
2019-04-05T02:49:30.325Z,940.45
2019-04-05T02:50:30.312Z,940.46
2019-04-05T02:51:30.305Z,940.48
2019-04-05T02:52:30.287Z,940.47
2019-04-05T02:53:30.279Z,940.46
2019-04-05T02:54:30.272Z,940.52
2019-04-05T02:55:30.251Z,940.5
2019-04-05T02:56:30.239Z,940.55
2019-04-05T02:57:30.234Z,940.59
2019-04-05T02:58:30.213Z,940.59
2019-04-05T02:59:30.200Z,940.6
2019-04-05T03:00:30.193Z,940.6
2019-04-05T03:01:30.175Z,940.6
2019-04-05T03:02:30.162Z,940.6
2019-04-05T03:03:30.151Z,940.63
2019-04-05T03:04:30.137Z,940.64
2019-04-05T03:05:30.125Z,940.64
2019-04-05T03:06:30.113Z,940.68
2019-04-05T03:07:30.100Z,940.72
2019-04-05T03:08:30.088Z,940.76
2019-04-05T03:09:30.076Z,940.82
2019-04-05T03:10:30.063Z,940.86
2019-04-05T03:11:30.051Z,940.87
2019-04-05T03:12:30.047Z,940.88
2019-04-05T03:13:30.026Z,940.87
2019-04-05T03:14:30.013Z,940.83
2019-04-05T03:15:30.003Z,940.82
2019-04-05T03:16:39.933Z,940.73
2019-04-05T03:17:29.977Z,940.66
2019-04-05T03:18:29.965Z,940.7
2019-04-05T03:19:29.952Z,940.7
2019-04-05T03:20:29.941Z,940.69
2019-04-05T03:21:29.926Z,940.69
2019-04-05T03:22:29.917Z,940.7
2019-04-05T03:23:29.903Z,940.7
2019-04-05T03:24:29.891Z,940.73
2019-04-05T03:25:29.880Z,940.73
2019-04-05T03:26:29.894Z,940.76
2019-04-05T03:27:29.853Z,940.77
2019-04-05T03:28:29.839Z,940.73
2019-04-05T03:29:29.828Z,940.75
2019-04-05T03:30:29.861Z,940.77
2019-04-05T03:31:29.802Z,940.76
2019-04-05T03:32:29.894Z,940.77
2019-04-05T03:33:29.778Z,940.77
2019-04-05T03:34:29.767Z,940.79
2019-04-05T03:35:29.754Z,940.8
2019-04-05T03:36:29.775Z,940.79
2019-04-05T03:37:29.729Z,940.76
2019-04-05T03:38:29.718Z,940.76
2019-04-05T03:39:29.705Z,940.76
2019-04-05T03:40:29.767Z,940.75
2019-04-05T03:41:29.680Z,940.76
2019-04-05T03:42:29.667Z,940.79
2019-04-05T03:43:29.653Z,940.85
2019-04-05T03:44:29.641Z,940.83
2019-04-05T03:45:29.630Z,940.86
2019-04-05T03:46:29.619Z,940.82
2019-04-05T03:47:29.604Z,940.9
2019-04-05T03:48:29.590Z,940.89
2019-04-05T03:49:29.585Z,940.89
2019-04-05T03:50:29.564Z,940.89
2019-04-05T03:51:29.553Z,940.9
2019-04-05T03:52:29.543Z,940.95
2019-04-05T03:53:29.528Z,940.95
2019-04-05T03:54:29.514Z,940.95
2019-04-05T03:55:29.501Z,940.94
2019-04-05T03:56:29.489Z,940.92
2019-04-05T03:57:29.475Z,940.95
2019-04-05T03:58:29.464Z,940.93
2019-04-05T03:59:29.452Z,940.92
2019-04-05T04:00:29.441Z,940.93
2019-04-05T04:01:29.425Z,940.93
2019-04-05T04:02:29.416Z,940.93
2019-04-05T04:03:29.408Z,941
2019-04-05T04:04:29.388Z,941.02
2019-04-05T04:05:29.376Z,941.03
2019-04-05T04:06:29.371Z,941.02
2019-04-05T04:07:29.350Z,941.04
2019-04-05T04:08:29.338Z,940.99
2019-04-05T04:09:29.323Z,941.01
2019-04-05T04:10:29.313Z,941.04
2019-04-05T04:11:29.314Z,941.06
2019-04-05T04:12:29.296Z,941.06
2019-04-05T04:13:29.275Z,941.09
2019-04-05T04:14:29.261Z,941.06
2019-04-05T04:15:29.248Z,941.05
2019-04-05T04:16:29.234Z,941.06
2019-04-05T04:17:29.222Z,941.06
2019-04-05T04:18:29.212Z,941.07
2019-04-05T04:19:29.197Z,941.12
2019-04-05T04:20:29.185Z,941.12
2019-04-05T04:21:29.173Z,941.16
2019-04-05T04:22:29.160Z,941.18
2019-04-05T04:23:29.148Z,941.21
2019-04-05T04:24:29.135Z,941.16
2019-04-05T04:25:29.122Z,941.19
2019-04-05T04:26:29.110Z,941.13
2019-04-05T04:27:29.098Z,941.13
2019-04-05T04:28:29.088Z,941.05
2019-04-05T04:29:29.072Z,941.08
2019-04-05T04:30:29.058Z,941.11
2019-04-05T04:31:29.046Z,941.13
2019-04-05T04:32:29.034Z,941.1
2019-04-05T04:33:29.022Z,941.13
2019-04-05T04:34:29.009Z,941.12
2019-04-05T04:35:28.995Z,941.09
2019-04-05T04:36:28.982Z,941.13
2019-04-05T04:37:28.970Z,941.1
2019-04-05T04:38:28.958Z,941.13
2019-04-05T04:39:28.943Z,941.13
2019-04-05T04:40:28.934Z,941.15
2019-04-05T04:41:31.853Z,941.14
2019-04-05T04:42:28.907Z,941.15
2019-04-05T04:43:28.893Z,941.2
2019-04-05T04:44:28.881Z,941.23
2019-04-05T04:45:28.867Z,941.24
2019-04-05T04:46:28.854Z,941.23
2019-04-05T04:47:28.842Z,941.25
2019-04-05T04:48:28.829Z,941.25
2019-04-05T04:49:28.832Z,941.26
2019-04-05T04:50:28.802Z,941.27
2019-04-05T04:51:28.789Z,941.29
2019-04-05T04:52:31.208Z,941.27
2019-04-05T04:53:28.764Z,941.27
2019-04-05T04:54:28.750Z,941.26
2019-04-05T04:55:28.738Z,941.29
2019-04-05T04:56:28.726Z,941.27
2019-04-05T04:57:28.712Z,941.24
2019-04-05T04:58:28.702Z,941.25
2019-04-05T04:59:28.687Z,941.24
2019-04-05T05:00:28.673Z,941.21
2019-04-05T05:01:28.661Z,941.23
2019-04-05T05:02:28.648Z,941.25
2019-04-05T05:03:28.636Z,941.25
2019-04-05T05:04:28.623Z,941.2
2019-04-05T05:05:28.611Z,941.18
2019-04-05T05:06:28.595Z,941.16
2019-04-05T05:07:28.583Z,941.11
2019-04-05T05:08:28.571Z,941.09
2019-04-05T05:09:28.562Z,941.1
2019-04-05T05:10:28.544Z,941.11
2019-04-05T05:11:28.532Z,941.11
2019-04-05T05:12:28.519Z,941.08
2019-04-05T05:13:28.506Z,941.08
2019-04-05T05:14:28.492Z,941.07
2019-04-05T05:15:28.480Z,941.1
2019-04-05T05:16:28.520Z,941.11
2019-04-05T05:17:37.672Z,941.11
2019-04-05T05:18:28.440Z,941.13
2019-04-05T05:19:28.428Z,941.1
2019-04-05T05:20:28.415Z,941.17
2019-04-05T05:21:28.402Z,941.15
2019-04-05T05:22:28.390Z,941.16
2019-04-05T05:23:28.376Z,941.18
2019-04-05T05:24:28.468Z,941.21
2019-04-05T05:25:28.350Z,941.18
2019-04-05T05:26:28.340Z,941.25
2019-04-05T05:27:28.323Z,941.29
2019-04-05T05:28:28.312Z,941.3
2019-04-05T05:29:28.298Z,941.31
2019-04-05T05:30:28.288Z,941.29
2019-04-05T05:31:28.272Z,941.32
2019-04-05T05:32:28.260Z,941.34
2019-04-05T05:33:28.248Z,941.33
2019-04-05T05:34:28.232Z,941.35
2019-04-05T05:35:28.223Z,941.39
2019-04-05T05:36:28.207Z,941.42
2019-04-05T05:37:28.203Z,941.44
2019-04-05T05:38:28.331Z,941.44
2019-04-05T05:39:28.172Z,941.43
2019-04-05T05:40:34.499Z,941.42
2019-04-05T05:41:28.142Z,941.43
2019-04-05T05:42:28.128Z,941.46
2019-04-05T05:43:28.114Z,941.51
2019-04-05T05:44:28.101Z,941.52
2019-04-05T05:45:28.090Z,941.56
2019-04-05T05:46:28.077Z,941.54
2019-04-05T05:47:28.062Z,941.62
2019-04-05T05:48:30.654Z,941.6
2019-04-05T05:49:28.039Z,941.62
2019-04-05T05:50:28.022Z,941.66
2019-04-05T05:51:28.011Z,941.63
2019-04-05T05:52:27.999Z,941.64
2019-04-05T05:53:27.988Z,941.62
2019-04-05T05:54:27.976Z,941.64
2019-04-05T05:55:30.012Z,941.62
2019-04-05T05:56:27.946Z,941.64
2019-04-05T05:57:27.936Z,941.62
2019-04-05T05:58:27.942Z,941.6
2019-04-05T05:59:30.187Z,941.66
2019-04-05T06:00:30.140Z,941.62
2019-04-05T06:01:27.881Z,941.63
2019-04-05T06:02:27.870Z,941.65
2019-04-05T06:03:27.856Z,941.68
2019-04-05T06:04:27.844Z,941.67
2019-04-05T06:05:27.833Z,941.69
2019-04-05T06:06:27.820Z,941.67
2019-04-05T06:07:27.805Z,941.65
2019-04-05T06:08:29.283Z,941.65
2019-04-05T06:09:27.780Z,941.69
2019-04-05T06:10:27.767Z,941.62
2019-04-05T06:11:27.756Z,941.68
2019-04-05T06:12:27.741Z,941.64
2019-04-05T06:13:27.728Z,941.64
2019-04-05T06:14:27.717Z,941.63
2019-04-05T06:15:27.703Z,941.66
2019-04-05T06:16:27.690Z,941.68
2019-04-05T06:17:27.679Z,941.68
2019-04-05T06:18:27.665Z,941.66
2019-04-05T06:19:27.652Z,941.63
2019-04-05T06:20:27.639Z,941.62
2019-04-05T06:21:27.640Z,941.61
2019-04-05T06:22:27.615Z,941.62
2019-04-05T06:23:33.317Z,941.64
2019-04-05T06:24:27.589Z,941.61
2019-04-05T06:25:27.580Z,941.67
2019-04-05T06:26:27.565Z,941.72
2019-04-05T06:27:27.550Z,941.71
2019-04-05T06:28:27.670Z,941.7
2019-04-05T06:29:27.525Z,941.71
2019-04-05T06:30:28.832Z,941.73
2019-04-05T06:31:27.502Z,941.75
2019-04-05T06:32:27.488Z,941.81
2019-04-05T06:33:31.620Z,941.82
2019-04-05T06:34:27.462Z,941.81
2019-04-05T06:35:27.450Z,941.85
2019-04-05T06:36:27.439Z,941.8
2019-04-05T06:37:27.425Z,941.82
2019-04-05T06:38:27.412Z,941.79
2019-04-05T06:39:27.399Z,941.79
2019-04-05T06:40:39.642Z,941.79
2019-04-05T06:41:27.377Z,941.76
2019-04-05T06:42:27.361Z,941.74
2019-04-05T06:43:27.349Z,941.74
2019-04-05T06:44:28.041Z,941.75
2019-04-05T06:45:27.323Z,941.73
2019-04-05T06:46:27.312Z,941.74
2019-04-05T06:47:27.300Z,941.74
2019-04-05T06:48:29.239Z,941.77
2019-04-05T06:49:27.274Z,941.76
2019-04-05T06:50:27.261Z,941.77
2019-04-05T06:51:27.251Z,941.79
2019-04-05T06:52:27.235Z,941.77
2019-04-05T06:53:27.225Z,941.82
2019-04-05T06:54:27.210Z,941.76
2019-04-05T06:55:27.198Z,941.74
2019-04-05T06:56:27.184Z,941.72
2019-04-05T06:57:27.173Z,941.72
2019-04-05T06:58:28.795Z,941.74
2019-04-05T06:59:27.184Z,941.69
2019-04-05T07:00:27.134Z,941.75
2019-04-05T07:01:27.123Z,941.75
2019-04-05T07:02:27.113Z,941.7
2019-04-05T07:03:27.097Z,941.74
2019-04-05T07:04:27.088Z,941.78
2019-04-05T07:05:27.073Z,941.79
2019-04-05T07:06:27.060Z,941.85
2019-04-05T07:07:27.047Z,941.81
2019-04-05T07:08:27.035Z,941.84
2019-04-05T07:09:27.022Z,941.85
2019-04-05T07:10:27.010Z,941.78
2019-04-05T07:11:26.997Z,941.83
2019-04-05T07:12:26.987Z,941.83
2019-04-05T07:13:27.500Z,941.86
2019-04-05T07:14:26.962Z,941.86
2019-04-05T07:15:26.949Z,941.89
2019-04-05T07:16:26.934Z,941.9
2019-04-05T07:17:26.923Z,941.89
2019-04-05T07:18:34.251Z,941.93
2019-04-05T07:19:26.898Z,941.91
2019-04-05T07:20:26.885Z,941.93
2019-04-05T07:21:26.874Z,941.93
2019-04-05T07:22:37.183Z,941.93
2019-04-05T07:23:26.848Z,941.92
2019-04-05T07:24:26.847Z,941.96
2019-04-05T07:25:29.184Z,941.96
2019-04-05T07:26:26.811Z,941.98
2019-04-05T07:27:26.799Z,941.95
2019-04-05T07:28:26.787Z,941.97
2019-04-05T07:29:26.774Z,942.02
2019-04-05T07:30:28.799Z,942.03
2019-04-05T07:31:26.751Z,942.05
2019-04-05T07:32:26.737Z,941.94
2019-04-05T07:33:26.728Z,941.98
2019-04-05T07:34:26.712Z,942.02
2019-04-05T07:35:33.095Z,942.01
2019-04-05T07:36:26.690Z,941.99
2019-04-05T07:37:26.675Z,941.97
2019-04-05T07:38:26.663Z,941.96
2019-04-05T07:39:26.651Z,941.9
2019-04-05T07:40:26.638Z,941.91
2019-04-05T07:41:26.626Z,941.94
2019-04-05T07:42:26.614Z,941.97
2019-04-05T07:43:26.604Z,942
2019-04-05T07:44:26.590Z,941.95
2019-04-05T07:45:26.579Z,942.02
2019-04-05T07:46:26.566Z,942.02
2019-04-05T07:47:26.554Z,942.01
2019-04-05T07:48:26.542Z,942.09
2019-04-05T07:49:26.531Z,942.1
2019-04-05T07:50:26.520Z,942.11
2019-04-05T07:51:26.505Z,942.13
2019-04-05T07:52:26.495Z,942.1
2019-04-05T07:53:26.482Z,942.14
2019-04-05T07:54:26.471Z,942.13
2019-04-05T07:55:26.463Z,942.13
2019-04-05T07:56:26.447Z,942.1
2019-04-05T07:57:26.435Z,942.09
2019-04-05T07:58:26.421Z,942.1
2019-04-05T07:59:26.410Z,942.08
2019-04-05T08:00:26.398Z,942.07
2019-04-05T08:01:26.388Z,942.04
2019-04-05T08:02:26.374Z,942.06
2019-04-05T08:03:26.362Z,942.07
2019-04-05T08:04:26.351Z,942.09
2019-04-05T08:05:26.339Z,942.1
2019-04-05T08:06:26.328Z,942.13
2019-04-05T08:07:26.318Z,942.07
2019-04-05T08:08:26.305Z,942.1
2019-04-05T08:09:26.295Z,942.06
2019-04-05T08:10:26.280Z,942.05
2019-04-05T08:11:26.274Z,942.07
2019-04-05T08:12:26.258Z,942.11
2019-04-05T08:13:26.244Z,942.16
2019-04-05T08:14:26.235Z,942.09
2019-04-05T08:15:26.223Z,942.1
2019-04-05T08:16:26.212Z,942.1
2019-04-05T08:17:26.196Z,942.09
2019-04-05T08:18:26.187Z,942.1
2019-04-05T08:19:26.179Z,942.1
2019-04-05T08:20:26.164Z,942.14
2019-04-05T08:21:26.152Z,942.1
2019-04-05T08:22:26.139Z,942.1
2019-04-05T08:23:26.127Z,942.11
2019-04-05T08:24:26.114Z,942.07
2019-04-05T08:25:26.101Z,942.12
2019-04-05T08:26:26.094Z,942.17
2019-04-05T08:27:26.077Z,942.18
2019-04-05T08:28:26.067Z,942.19
2019-04-05T08:29:26.054Z,942.18
2019-04-05T08:30:26.042Z,942.22
2019-04-05T08:31:26.029Z,942.18
2019-04-05T08:32:26.019Z,942.16
2019-04-05T08:33:26.006Z,942.15
2019-04-05T08:34:25.997Z,942.16
2019-04-05T08:35:25.981Z,942.17
2019-04-05T08:36:25.970Z,942.13
2019-04-05T08:37:25.958Z,942.2
2019-04-05T08:38:25.950Z,942.16
2019-04-05T08:39:25.936Z,942.17
2019-04-05T08:40:25.922Z,942.22
2019-04-05T08:41:25.911Z,942.16
2019-04-05T08:42:25.899Z,942.22
2019-04-05T08:43:25.889Z,942.22
2019-04-05T08:44:25.875Z,942.21
2019-04-05T08:45:25.866Z,942.22
2019-04-05T08:46:25.851Z,942.26
2019-04-05T08:47:25.839Z,942.23
2019-04-05T08:48:25.829Z,942.2
2019-04-05T08:49:25.816Z,942.22
2019-04-05T08:50:25.804Z,942.2
2019-04-05T08:51:25.792Z,942.18
2019-04-05T08:52:27.078Z,942.24
2019-04-05T08:53:25.769Z,942.29
2019-04-05T08:54:32.194Z,942.3
2019-04-05T08:55:25.747Z,942.3
2019-04-05T08:56:25.736Z,942.29
2019-04-05T08:57:25.722Z,942.31
2019-04-05T08:58:33.062Z,942.29
2019-04-05T08:59:25.700Z,942.25
2019-04-05T09:00:25.688Z,942.28
2019-04-05T09:01:25.677Z,942.29
2019-04-05T09:02:25.668Z,942.28
2019-04-05T09:03:25.652Z,942.24
2019-04-05T09:04:25.641Z,942.22
2019-04-05T09:05:25.630Z,942.19
2019-04-05T09:06:25.627Z,942.2
2019-04-05T09:07:25.610Z,942.23
2019-04-05T09:08:25.594Z,942.22
2019-04-05T09:09:25.585Z,942.23
2019-04-05T09:10:25.572Z,942.3
2019-04-05T09:11:25.563Z,942.31
2019-04-05T09:12:25.551Z,942.31
2019-04-05T09:13:25.537Z,942.35
2019-04-05T09:14:25.527Z,942.34
2019-04-05T09:15:25.514Z,942.39
2019-04-05T09:16:25.502Z,942.33
2019-04-05T09:17:25.494Z,942.4
2019-04-05T09:18:25.480Z,942.35
2019-04-05T09:19:25.476Z,942.37
2019-04-05T09:20:25.456Z,942.33
2019-04-05T09:21:25.445Z,942.3
2019-04-05T09:22:25.433Z,942.33
2019-04-05T09:23:25.422Z,942.29
2019-04-05T09:24:25.410Z,942.35
2019-04-05T09:25:25.399Z,942.27
2019-04-05T09:26:25.387Z,942.34
2019-04-05T09:27:25.377Z,942.34
2019-04-05T09:28:25.382Z,942.33
2019-04-05T09:29:25.355Z,942.39
2019-04-05T09:30:25.342Z,942.34
2019-04-05T09:31:25.332Z,942.39
2019-04-05T09:32:25.320Z,942.37
2019-04-05T09:33:25.310Z,942.36
2019-04-05T09:34:25.304Z,942.35
2019-04-05T09:35:25.288Z,942.35
2019-04-05T09:36:25.289Z,942.39
2019-04-05T09:37:25.264Z,942.38
2019-04-05T09:38:25.253Z,942.41
2019-04-05T09:39:25.247Z,942.4
2019-04-05T09:40:25.233Z,942.38
2019-04-05T09:41:25.222Z,942.4
2019-04-05T09:42:25.211Z,942.4
2019-04-05T09:43:25.206Z,942.41
2019-04-05T09:44:25.189Z,942.42
2019-04-05T09:45:25.179Z,942.4
2019-04-05T09:46:25.169Z,942.42
2019-04-05T09:47:25.159Z,942.41
2019-04-05T09:48:25.148Z,942.39
2019-04-05T09:49:36.018Z,942.4
2019-04-05T09:50:25.127Z,942.44
2019-04-05T09:51:25.116Z,942.37
2019-04-05T09:52:25.106Z,942.39
2019-04-05T09:53:25.097Z,942.37
2019-04-05T09:54:25.086Z,942.37
2019-04-05T09:55:25.076Z,942.4
2019-04-05T09:56:25.066Z,942.37
2019-04-05T09:57:25.061Z,942.41
2019-04-05T09:58:25.046Z,942.38
2019-04-05T09:59:25.036Z,942.37
2019-04-05T10:00:25.026Z,942.36
2019-04-05T10:01:25.017Z,942.36
2019-04-05T10:02:25.010Z,942.38
2019-04-05T10:03:24.998Z,942.36
2019-04-05T10:04:24.988Z,942.38
2019-04-05T10:05:24.979Z,942.39
2019-04-05T10:06:24.968Z,942.38
2019-04-05T10:07:24.960Z,942.42
2019-04-05T10:08:24.961Z,942.4
2019-04-05T10:09:24.941Z,942.42
2019-04-05T10:10:24.933Z,942.43
2019-04-05T10:11:24.922Z,942.42
2019-04-05T10:12:24.913Z,942.44
2019-04-05T10:13:24.903Z,942.49
2019-04-05T10:14:24.896Z,942.48
2019-04-05T10:15:24.890Z,942.46
2019-04-05T10:16:24.876Z,942.5
2019-04-05T10:17:24.866Z,942.5
2019-04-05T10:18:24.860Z,942.47
2019-04-05T10:19:24.848Z,942.49
2019-04-05T10:20:24.842Z,942.42
2019-04-05T10:21:24.869Z,942.46
2019-04-05T10:22:24.822Z,942.52
2019-04-05T10:23:24.814Z,942.47
2019-04-05T10:24:24.804Z,942.47
2019-04-05T10:25:24.797Z,942.42
2019-04-05T10:26:24.788Z,942.43
2019-04-05T10:27:24.780Z,942.41
2019-04-05T10:28:24.770Z,942.45
2019-04-05T10:29:24.761Z,942.46
2019-04-05T10:30:24.753Z,942.46
2019-04-05T10:31:24.746Z,942.46
2019-04-05T10:32:24.737Z,942.47
2019-04-05T10:33:24.729Z,942.47
2019-04-05T10:34:24.720Z,942.48
2019-04-05T10:35:24.710Z,942.51
2019-04-05T10:36:24.702Z,942.49
2019-04-05T10:37:24.697Z,942.54
2019-04-05T10:38:24.687Z,942.59
2019-04-05T10:39:24.680Z,942.58
2019-04-05T10:40:24.674Z,942.57
2019-04-05T10:41:24.661Z,942.58
2019-04-05T10:42:24.654Z,942.61
2019-04-05T10:43:24.645Z,942.61
2019-04-05T10:44:24.636Z,942.6
2019-04-05T10:45:24.629Z,942.63
2019-04-05T10:46:24.620Z,942.61
2019-04-05T10:47:24.611Z,942.64
2019-04-05T10:48:24.602Z,942.66
2019-04-05T10:49:24.596Z,942.62
2019-04-05T10:50:24.585Z,942.66
2019-04-05T10:51:24.578Z,942.64
2019-04-05T10:52:24.569Z,942.68
2019-04-05T10:53:24.564Z,942.7
2019-04-05T10:54:24.553Z,942.72
2019-04-05T10:55:24.545Z,942.73
2019-04-05T10:56:24.536Z,942.77
2019-04-05T10:57:24.528Z,942.78
2019-04-05T10:58:24.523Z,942.77
2019-04-05T10:59:24.514Z,942.78
2019-04-05T11:00:24.504Z,942.82
2019-04-05T11:01:24.495Z,942.78
2019-04-05T11:02:24.486Z,942.79
2019-04-05T11:03:24.479Z,942.81
2019-04-05T11:04:24.468Z,942.78
2019-04-05T11:05:24.458Z,942.81
2019-04-05T11:06:24.456Z,942.81
2019-04-05T11:07:24.445Z,942.84
2019-04-05T11:08:24.493Z,942.79
2019-04-05T11:09:24.427Z,942.82
2019-04-05T11:10:24.415Z,942.8
2019-04-05T11:11:24.409Z,942.83
2019-04-05T11:12:24.400Z,942.88
2019-04-05T11:13:24.391Z,942.86
2019-04-05T11:14:24.381Z,942.82
2019-04-05T11:15:24.373Z,942.8
2019-04-05T11:16:24.365Z,942.81
2019-04-05T11:17:24.356Z,942.83
2019-04-05T11:18:24.349Z,942.84
2019-04-05T11:19:24.339Z,942.86
2019-04-05T11:20:24.333Z,942.81
2019-04-05T11:21:24.322Z,942.82
2019-04-05T11:22:24.313Z,942.77
2019-04-05T11:23:24.304Z,942.77
2019-04-05T11:24:24.295Z,942.8
2019-04-05T11:25:24.288Z,942.79
2019-04-05T11:26:24.278Z,942.74
2019-04-05T11:27:24.269Z,942.81
2019-04-05T11:28:24.262Z,942.74
2019-04-05T11:29:24.253Z,942.74
2019-04-05T11:30:26.912Z,942.75
2019-04-05T11:31:24.237Z,942.77
2019-04-05T11:32:24.229Z,942.78
2019-04-05T11:33:24.220Z,942.75
2019-04-05T11:34:24.214Z,942.77
2019-04-05T11:35:24.204Z,942.79
2019-04-05T11:36:24.195Z,942.81
2019-04-05T11:37:24.186Z,942.82
2019-04-05T11:38:24.587Z,942.77
2019-04-05T11:39:24.170Z,942.77
2019-04-05T11:40:24.265Z,942.76
2019-04-05T11:41:24.154Z,942.8
2019-04-05T11:42:24.146Z,942.79
2019-04-05T11:43:26.127Z,942.8
2019-04-05T11:44:24.132Z,942.8
2019-04-05T11:45:24.121Z,942.79
2019-04-05T11:46:24.115Z,942.79
2019-04-05T11:47:24.108Z,942.79
2019-04-05T11:48:24.098Z,942.82
2019-04-05T11:49:24.092Z,942.83
2019-04-05T11:50:33.747Z,942.82
2019-04-05T11:51:24.075Z,942.82
2019-04-05T11:52:24.067Z,942.81
2019-04-05T11:53:24.060Z,942.8
2019-04-05T11:54:24.052Z,942.73
2019-04-05T11:55:24.044Z,942.74
2019-04-05T11:56:24.034Z,942.78
2019-04-05T11:57:24.028Z,942.83
2019-04-05T11:58:24.020Z,942.83
2019-04-05T11:59:24.010Z,942.79
2019-04-05T12:00:24.004Z,942.82
2019-04-05T12:01:23.999Z,942.76
2019-04-05T12:02:23.998Z,942.78
2019-04-05T12:03:23.981Z,942.74
2019-04-05T12:04:23.971Z,942.75
2019-04-05T12:05:26.869Z,942.73
2019-04-05T12:06:23.956Z,942.65
2019-04-05T12:07:26.215Z,942.68
2019-04-05T12:08:23.939Z,942.67
2019-04-05T12:09:23.932Z,942.68
2019-04-05T12:10:23.922Z,942.69
2019-04-05T12:11:23.915Z,942.69
2019-04-05T12:12:25.552Z,942.74
2019-04-05T12:13:23.897Z,942.72
2019-04-05T12:14:29.853Z,942.68
2019-04-05T12:15:23.881Z,942.74
2019-04-05T12:16:23.874Z,942.75
2019-04-05T12:17:23.864Z,942.75
2019-04-05T12:18:23.855Z,942.74
2019-04-05T12:19:23.846Z,942.79
2019-04-05T12:20:23.838Z,942.77
2019-04-05T12:21:23.828Z,942.76
2019-04-05T12:22:23.819Z,942.78
2019-04-05T12:23:23.810Z,942.76
2019-04-05T12:24:23.803Z,942.72
2019-04-05T12:25:23.793Z,942.73
2019-04-05T12:26:23.784Z,942.74
2019-04-05T12:27:23.775Z,942.71
2019-04-05T12:28:23.767Z,942.73
2019-04-05T12:29:23.757Z,942.76
2019-04-05T12:30:23.748Z,942.71
2019-04-05T12:31:23.739Z,942.65